Time;durP1;ratioP1;P1;durP2;ratioP2;P2;SDS_P1;SDS_P2;PMS_P1;PMS_P2;Temp;Humidity;BMP_temperature;BMP_pressure;BME280_temperature;BME280_humidity;BME280_pressure;Samples;Min_cycle;Max_cycle;Signal;HPM_P1;HPM_P2
2022/04/23 00:00:50;;;;;;;30.45;16.27;;;;;;;10.02;73.88;100280.91;5057289;28;20028;-76
2022/04/23 00:03:15;;;;;;;24.95;16.20;;;;;;;9.98;74.84;100282.13;5050058;28;20024;-76
2022/04/23 00:05:41;;;;;;;28.73;17.42;;;;;;;9.93;74.95;100281.66;5063288;28;20100;-76
2022/04/23 00:08:06;;;;;;;29.02;17.63;;;;;;;9.89;74.39;100278.34;5068590;28;20024;-77
2022/04/23 00:10:32;;;;;;;29.40;17.98;;;;;;;9.87;75.02;100282.13;5056191;28;20037;-76
2022/04/23 00:12:59;;;;;;;27.80;15.57;;;;;;;9.83;75.21;100275.31;5066019;28;20028;-76
2022/04/23 00:15:25;;;;;;;27.65;16.92;;;;;;;9.79;75.30;100280.94;5059683;28;20028;-76
2022/04/23 00:17:51;;;;;;;28.15;16.65;;;;;;;9.75;75.83;100279.47;5072433;28;20048;-76
2022/04/23 00:20:18;;;;;;;26.98;16.45;;;;;;;9.68;75.84;100275.56;5078008;28;20032;-76
2022/04/23 00:22:43;;;;;;;27.52;17.15;;;;;;;9.61;76.21;100274.31;5069726;28;20086;-76
2022/04/23 00:25:09;;;;;;;27.65;17.27;;;;;;;9.59;76.32;100281.63;5068100;28;20432;-76
2022/04/23 00:27:34;;;;;;;28.80;18.00;;;;;;;9.57;76.26;100283.56;5069099;28;20031;-76
2022/04/23 00:30:00;;;;;;;35.90;17.08;;;;;;;9.53;76.64;100276.75;5060525;28;20116;-76
2022/04/23 00:32:25;;;;;;;27.48;17.40;;;;;;;9.52;76.96;100272.38;5049760;28;20041;-76
2022/04/23 00:34:50;;;;;;;27.92;17.13;;;;;;;9.51;76.84;100273.34;5067071;28;20326;-76
2022/04/23 00:37:16;;;;;;;28.77;18.13;;;;;;;9.47;76.73;100275.38;5069456;28;20024;-76
2022/04/23 00:39:41;;;;;;;31.30;18.08;;;;;;;9.43;76.98;100269.41;5066444;28;20045;-76
2022/04/23 00:42:09;;;;;;;30.15;16.77;;;;;;;9.42;77.12;100270.38;5069635;28;20031;-76
2022/04/23 00:44:35;;;;;;;26.88;16.67;;;;;;;9.40;77.69;100277.72;5063691;28;20035;-76
2022/04/23 00:47:01;;;;;;;26.90;17.13;;;;;;;9.36;77.78;100272.72;5059277;28;20404;-76
2022/04/23 00:49:27;;;;;;;28.45;18.20;;;;;;;9.32;77.43;100266.72;5049944;28;20036;-76
2022/04/23 00:51:52;;;;;;;25.63;16.17;;;;;;;9.30;77.77;100270.47;5050006;28;20024;-76
2022/04/23 00:54:19;;;;;;;28.45;18.48;;;;;;;9.28;78.12;100278.63;5069895;28;20051;-76
2022/04/23 00:56:45;;;;;;;28.05;17.27;;;;;;;9.25;78.44;100270.84;5072801;28;20468;-76
2022/04/23 00:59:12;;;;;;;29.00;17.65;;;;;;;9.24;78.25;100266.47;5072277;28;20035;-76
2022/04/23 01:01:40;;;;;;;28.15;16.55;;;;;;;9.21;78.40;100275.59;5073252;28;20448;-79
2022/04/23 01:04:06;;;;;;;29.45;18.73;;;;;;;9.21;78.27;100272.03;5055038;28;20646;-79
2022/04/23 01:06:34;;;;;;;28.23;17.50;;;;;;;9.20;78.55;100270.34;5051532;28;20078;-78
2022/04/23 01:09:01;;;;;;;28.13;17.67;;;;;;;9.16;78.82;100272.41;5065078;28;20029;-79
2022/04/23 01:11:26;;;;;;;28.00;17.50;;;;;;;9.13;78.90;100278.00;5073120;28;20024;-79
2022/04/23 01:13:51;;;;;;;27.92;17.58;;;;;;;9.14;78.89;100276.19;5071835;28;20043;-79
2022/04/23 01:16:19;;;;;;;27.15;17.10;;;;;;;9.12;79.01;100272.75;5071508;28;20047;-79
2022/04/23 01:18:44;;;;;;;28.35;18.13;;;;;;;9.10;79.21;100271.03;5069808;28;20040;-79
2022/04/23 01:21:10;;;;;;;30.58;18.85;;;;;;;9.08;79.39;100272.16;5071389;28;20028;-79
2022/04/23 01:23:40;;;;;;;30.38;18.45;;;;;;;9.09;79.66;100274.72;5057750;28;20064;-79
2022/04/23 01:26:07;;;;;;;28.83;17.85;;;;;;;9.07;79.37;100265.06;5052736;28;20336;-79
2022/04/23 01:28:35;;;;;;;27.70;18.13;;;;;;;9.05;79.61;100267.88;5066594;28;20126;-79
2022/04/23 01:31:00;;;;;;;29.65;17.80;;;;;;;9.04;79.74;100274.19;5072512;28;20020;-79
2022/04/23 01:33:26;;;;;;;27.90;18.63;;;;;;;9.02;79.63;100280.63;5071040;28;20073;-79
2022/04/23 01:35:51;;;;;;;30.75;17.77;;;;;;;9.02;79.60;100276.16;5057879;28;20029;-79
2022/04/23 01:38:16;;;;;;;29.30;18.73;;;;;;;9.00;80.27;100278.06;5052565;28;20492;-79
2022/04/23 01:40:42;;;;;;;33.75;19.35;;;;;;;9.01;80.17;100276.25;5057606;28;20048;-79
2022/04/23 01:43:08;;;;;;;31.73;19.75;;;;;;;9.01;80.29;100279.78;5051796;28;20033;-79
2022/04/23 01:45:34;;;;;;;29.90;19.75;;;;;;;9.03;80.14;100279.66;5035278;28;20045;-79
2022/04/23 01:47:59;;;;;;;30.15;18.50;;;;;;;9.02;80.23;100281.50;5050756;28;20036;-79
2022/04/23 01:50:25;;;;;;;29.02;18.33;;;;;;;9.01;80.60;100276.25;5061706;28;20024;-79
2022/04/23 01:52:50;;;;;;;29.40;19.05;;;;;;;9.02;80.16;100278.81;5070838;28;20120;-79
2022/04/23 01:55:15;;;;;;;29.83;20.98;;;;;;;9.03;80.28;100274.31;5061689;28;20025;-79
2022/04/23 01:57:41;;;;;;;31.90;19.77;;;;;;;9.04;80.27;100281.38;5060352;28;20032;-79
2022/04/23 02:00:09;;;;;;;32.83;19.75;;;;;;;9.00;80.46;100286.13;5063809;28;20111;-79
2022/04/23 02:02:36;;;;;;;29.65;19.27;;;;;;;8.99;80.49;100284.44;5050565;28;20067;-79
2022/04/23 02:05:03;;;;;;;29.98;19.55;;;;;;;9.00;80.62;100282.59;5056349;28;20063;-79
2022/04/23 02:07:28;;;;;;;32.22;21.48;;;;;;;9.00;80.41;100288.78;5069446;28;20040;-79
2022/04/23 02:09:53;;;;;;;31.13;19.25;;;;;;;9.02;80.67;100284.19;5066048;28;20031;-79
2022/04/23 02:12:18;;;;;;;30.02;19.75;;;;;;;9.01;80.68;100285.16;5051865;28;20337;-79
2022/04/23 02:14:44;;;;;;;31.30;20.45;;;;;;;9.01;80.67;100285.16;5052157;28;20086;-79
2022/04/23 02:17:10;;;;;;;31.67;20.65;;;;;;;9.00;80.94;100283.44;5070246;28;20024;-79
2022/04/23 02:19:35;;;;;;;33.53;21.60;;;;;;;9.01;80.71;100278.94;5070324;28;20678;-79
2022/04/23 02:22:01;;;;;;;31.88;20.88;;;;;;;9.02;80.68;100281.50;5070481;28;20051;-79
2022/04/23 02:24:26;;;;;;;32.28;21.05;;;;;;;9.02;80.54;100277.94;5070267;28;20039;-79
2022/04/23 02:26:51;;;;;;;33.58;22.58;;;;;;;9.01;80.94;100277.13;5069409;28;20055;-79
2022/04/23 02:29:17;;;;;;;33.10;22.48;;;;;;;9.01;81.14;100281.63;5070142;28;20035;-80
2022/04/23 02:31:42;;;;;;;34.55;21.95;;;;;;;9.00;80.84;100282.59;5054697;28;20017;-79
2022/04/23 02:34:07;;;;;;;31.67;21.88;;;;;;;9.00;80.89;100280.75;5051642;28;20060;-80
2022/04/23 02:36:32;;;;;;;29.88;21.13;;;;;;;9.00;81.56;100277.22;5053603;28;20491;-79
2022/04/23 02:38:58;;;;;;;33.92;22.83;;;;;;;8.98;81.21;100273.81;5070003;28;20032;-79
2022/04/23 02:41:24;;;;;;;34.30;23.45;;;;;;;8.98;81.36;100274.66;5069165;28;20052;-79
2022/04/23 02:43:50;;;;;;;36.67;23.77;;;;;;;8.98;81.41;100277.34;5071270;28;20032;-79
2022/04/23 02:46:16;;;;;;;34.60;23.85;;;;;;;8.98;81.50;100276.50;5040994;28;20451;-79
2022/04/23 02:48:42;;;;;;;31.92;22.30;;;;;;;8.97;81.45;100280.16;5057630;28;20036;-79
2022/04/23 02:51:08;;;;;;;33.72;21.95;;;;;;;8.99;81.56;100273.72;5061386;28;20542;-79
2022/04/23 02:53:34;;;;;;;32.85;22.75;;;;;;;8.97;81.46;100272.94;5071191;28;20103;-79
2022/04/23 02:56:02;;;;;;;35.35;25.52;;;;;;;8.95;81.90;100266.88;5069304;28;20490;-79
2022/04/23 02:58:28;;;;;;;33.40;23.98;;;;;;;8.95;81.72;100271.38;5070983;28;20023;-79
2022/04/23 03:00:53;;;;;;;34.03;24.17;;;;;;;8.95;81.73;100271.38;5068233;28;20093;-80
2022/04/23 03:03:19;;;;;;;33.42;23.38;;;;;;;8.94;81.89;100270.50;5069256;28;20482;-79
2022/04/23 03:05:45;;;;;;;34.70;24.35;;;;;;;8.93;81.90;100260.75;5062400;28;20118;-79
2022/04/23 03:08:14;;;;;;;32.58;23.25;;;;;;;8.91;82.32;100265.38;5059500;28;20036;-79
2022/04/23 03:10:40;;;;;;;34.95;23.98;;;;;;;8.88;82.29;100258.41;5069591;28;20020;-79
2022/04/23 03:13:07;;;;;;;35.40;24.40;;;;;;;8.86;82.40;100256.84;5068080;28;20035;-79
2022/04/23 03:15:34;;;;;;;35.08;24.83;;;;;;;8.84;82.71;100258.78;5068186;28;20020;-80
2022/04/23 03:18:04;;;;;;;35.75;23.75;;;;;;;8.85;82.28;100266.69;5083175;28;20028;-80
2022/04/23 03:20:30;;;;;;;35.92;25.02;;;;;;;8.86;82.51;100267.56;5081305;28;20090;-79
2022/04/23 03:22:55;;;;;;;35.33;23.83;;;;;;;8.85;82.78;100264.00;5057247;28;20030;-79
2022/04/23 03:25:21;;;;;;;36.65;25.48;;;;;;;8.84;82.62;100264.97;5069014;28;20029;-79
2022/04/23 03:27:46;;;;;;;37.97;25.13;;;;;;;8.81;82.76;100265.22;5070143;28;20028;-79
2022/04/23 03:30:11;;;;;;;35.60;25.40;;;;;;;8.80;82.99;100270.69;5066546;28;20031;-79
2022/04/23 03:32:36;;;;;;;36.97;25.70;;;;;;;8.78;82.80;100268.13;5048287;28;20102;-79
2022/04/23 03:35:05;;;;;;;39.08;26.88;;;;;;;8.76;83.08;100261.19;5049081;28;20043;-79
2022/04/23 03:37:30;;;;;;;34.78;24.48;;;;;;;8.74;82.84;100267.50;5068836;28;20508;-79
2022/04/23 03:39:55;;;;;;;39.03;25.50;;;;;;;8.73;82.96;100262.28;5070426;28;20159;-79
2022/04/23 03:42:21;;;;;;;37.22;25.10;;;;;;;8.71;83.39;100257.03;5067475;28;20120;-79
2022/04/23 03:44:46;;;;;;;35.78;25.98;;;;;;;8.70;83.41;100249.13;5070367;28;20097;-79
2022/04/23 03:47:11;;;;;;;37.92;25.67;;;;;;;8.69;83.54;100256.28;5066328;28;20028;-79
2022/04/23 03:49:36;;;;;;;38.75;28.33;;;;;;;8.69;83.52;100256.28;5090478;28;20047;-79
2022/04/23 03:52:02;;;;;;;39.28;26.27;;;;;;;8.68;83.66;100248.34;5073047;28;20035;-79
2022/04/23 03:54:27;;;;;;;36.92;25.05;;;;;;;8.66;83.60;100248.47;5070159;28;20081;-79
2022/04/23 03:56:53;;;;;;;38.97;25.50;;;;;;;8.67;83.48;100252.03;5056983;28;20041;-79
2022/04/23 03:59:23;;;;;;;40.08;27.80;;;;;;;8.64;83.63;100250.41;5070365;28;20029;-79
2022/04/23 04:01:49;;;;;;;35.88;26.70;;;;;;;8.64;83.97;100246.88;5068165;28;20027;-79
2022/04/23 04:04:15;;;;;;;35.78;25.75;;;;;;;8.61;83.86;100247.09;5068752;28;20028;-79
2022/04/23 04:06:41;;;;;;;36.70;26.92;;;;;;;8.58;84.08;100237.50;5068633;28;20062;-79
2022/04/23 04:09:07;;;;;;;36.30;26.10;;;;;;;8.56;83.90;100234.94;5070016;28;20075;-79
2022/04/23 04:12:01;;;;;;;37.42;26.70;;;;;;;8.55;84.03;100237.69;5058856;28;20044;-79
2022/04/23 04:14:18;;;;;;;37.88;26.25;;;;;;;8.54;84.08;100242.22;5049973;28;20033;-79
2022/04/23 04:16:43;;;;;;;36.55;26.98;;;;;;;8.51;84.39;100236.25;5061774;28;20035;-79
2022/04/23 04:19:09;;;;;;;38.63;25.95;;;;;;;8.50;84.20;100231.84;5090273;28;20039;-79
2022/04/23 04:21:34;;;;;;;36.35;26.52;;;;;;;8.49;84.62;100233.69;5077118;28;20074;-79
2022/04/23 04:24:00;;;;;;;37.60;26.55;;;;;;;8.49;84.67;100231.00;5070097;28;20028;-79
2022/04/23 04:26:25;;;;;;;37.67;26.40;;;;;;;8.49;84.72;100230.13;5068773;28;20048;-80
2022/04/23 04:28:50;;;;;;;36.42;26.15;;;;;;;8.49;85.01;100235.47;5068508;28;20063;-79
2022/04/23 04:33:59;;;;;;;40.15;26.98;;;;;;;8.47;85.12;100235.59;5074141;28;20403;-80
2022/04/23 04:36:25;;;;;;;37.33;27.08;;;;;;;8.47;85.08;100232.91;5061827;28;20029;-80
2022/04/23 04:38:50;;;;;;;40.25;28.88;;;;;;;8.48;85.06;100229.28;5052280;28;20477;-79
2022/04/23 04:41:15;;;;;;;39.40;27.77;;;;;;;8.50;85.16;100235.38;5057573;28;20041;-79
2022/04/23 04:43:41;;;;;;;40.50;28.30;;;;;;;8.52;85.37;100233.44;5073918;28;20365;-80
2022/04/23 04:46:08;;;;;;;37.58;26.70;;;;;;;8.54;85.25;100231.50;5067808;28;20112;-80
2022/04/23 04:48:33;;;;;;;37.17;26.73;;;;;;;8.56;85.34;100231.38;5089273;28;20020;-79
2022/04/23 04:50:58;;;;;;;38.50;26.77;;;;;;;8.59;85.40;100249.91;5078671;28;20021;-79
2022/04/23 04:53:24;;;;;;;39.22;26.58;;;;;;;8.61;85.50;100239.94;5053526;28;20064;-80
2022/04/23 04:55:49;;;;;;;37.75;26.23;;;;;;;8.61;85.33;100247.97;5054394;28;20341;-80
2022/04/23 04:58:14;;;;;;;38.28;27.70;;;;;;;8.64;85.12;100252.22;5051993;28;20107;-79
2022/04/23 05:00:39;;;;;;;38.65;27.23;;;;;;;8.65;85.23;100249.44;5052159;28;20025;-79
2022/04/23 05:03:05;;;;;;;35.63;25.13;;;;;;;8.65;85.55;100254.78;5072656;28;20029;-79
2022/04/23 05:05:30;;;;;;;39.15;26.90;;;;;;;8.66;85.55;100247.63;5071860;28;20162;-79
2022/04/23 05:07:55;;;;;;;40.28;27.00;;;;;;;8.67;85.54;100247.50;5073002;28;20393;-80
2022/04/23 05:10:20;;;;;;;37.63;26.85;;;;;;;8.69;85.55;100250.91;5045106;28;20090;-80
2022/04/23 05:12:46;;;;;;;36.22;24.20;;;;;;;8.70;85.38;100263.34;5055703;28;20032;-79
2022/04/23 05:15:12;;;;;;;38.33;26.58;;;;;;;8.72;85.15;100248.00;5066106;28;20036;-79
2022/04/23 05:17:39;;;;;;;36.25;26.20;;;;;;;8.76;85.45;100253.16;5080969;28;20061;-80
2022/04/23 05:20:05;;;;;;;37.75;26.00;;;;;;;8.77;85.52;100252.16;5075481;28;20051;-79
2022/04/23 05:22:31;;;;;;;41.13;25.55;;;;;;;8.79;85.46;100251.09;5069521;28;20814;-80
2022/04/23 05:24:57;;;;;;;37.28;26.48;;;;;;;8.82;85.36;100245.50;5073122;28;20027;-80
2022/04/23 05:27:25;;;;;;;37.70;26.38;;;;;;;8.86;85.57;100251.50;5055230;28;20500;-80
2022/04/23 05:29:50;;;;;;;37.70;25.50;;;;;;;8.88;85.38;100257.56;5052981;28;20519;-80
2022/04/23 05:32:15;;;;;;;36.78;25.10;;;;;;;8.91;85.53;100257.34;5050870;28;20060;-80
2022/04/23 05:34:40;;;;;;;40.03;26.90;;;;;;;8.93;85.20;100247.34;5067154;28;20488;-80
2022/04/23 05:37:06;;;;;;;37.67;26.00;;;;;;;8.97;85.22;100247.97;5072529;28;20032;-79
2022/04/23 05:39:32;;;;;;;36.75;25.73;;;;;;;8.99;85.19;100246.03;5069231;28;20093;-80
2022/04/23 05:41:57;;;;;;;39.80;28.17;;;;;;;9.02;85.13;100240.44;5070479;28;20032;-80
2022/04/23 05:44:22;;;;;;;38.75;26.50;;;;;;;9.05;85.35;100235.69;5061835;28;20051;-79
2022/04/23 05:46:47;;;;;;;38.15;26.52;;;;;;;9.09;84.87;100241.66;5058796;28;20027;-79
2022/04/23 05:49:13;;;;;;;40.22;27.38;;;;;;;9.12;84.96;100246.78;5070692;28;20052;-79
2022/04/23 05:51:38;;;;;;;37.08;27.58;;;;;;;9.17;84.71;100247.31;5050508;28;20029;-79
2022/04/23 05:54:03;;;;;;;35.85;26.15;;;;;;;9.21;84.78;100243.41;5060140;28;20506;-79
2022/04/23 05:56:28;;;;;;;41.75;27.80;;;;;;;9.25;84.77;100247.59;5068458;28;20368;-79
2022/04/23 05:58:54;;;;;;;38.67;26.98;;;;;;;9.30;84.55;100244.53;5060393;28;20026;-79
2022/04/23 06:01:19;;;;;;;37.60;27.23;;;;;;;9.33;84.06;100241.59;5072224;28;20404;-79
2022/04/23 06:03:44;;;;;;;38.50;27.33;;;;;;;9.40;84.72;100242.84;5070526;28;20514;-79
2022/04/23 06:06:10;;;;;;;36.65;25.92;;;;;;;9.43;84.43;100239.91;5072075;28;20039;-79
2022/04/23 06:08:40;;;;;;;41.08;27.50;;;;;;;9.49;84.05;100245.75;5064356;28;20038;-79
2022/04/23 06:11:05;;;;;;;36.88;26.15;;;;;;;9.54;84.06;100252.47;5055178;28;20365;-79
2022/04/23 06:13:30;;;;;;;36.28;25.05;;;;;;;9.59;83.42;100246.75;5055823;28;20040;-79
2022/04/23 06:15:56;;;;;;;39.17;27.33;;;;;;;9.64;83.32;100251.78;5071968;28;20494;-80
2022/04/23 06:18:21;;;;;;;34.80;24.92;;;;;;;9.68;83.09;100243.34;5086568;28;20035;-80
2022/04/23 06:20:46;;;;;;;36.90;25.00;;;;;;;9.74;83.33;100248.22;5090487;28;20020;-80
2022/04/23 06:23:11;;;;;;;35.97;25.75;;;;;;;9.80;83.47;100250.41;5091978;28;20103;-80
2022/04/23 06:25:37;;;;;;;35.92;25.90;;;;;;;9.86;82.51;100243.69;5090146;28;20020;-80
2022/04/23 06:28:02;;;;;;;35.20;26.25;;;;;;;9.91;82.05;100240.66;5070337;28;20039;-81
2022/04/23 06:30:28;;;;;;;39.50;27.27;;;;;;;9.96;82.46;100251.88;5056567;28;20083;-80
2022/04/23 06:32:53;;;;;;;36.03;25.48;;;;;;;10.02;81.82;100245.16;5050194;28;20120;-80
2022/04/23 06:35:19;;;;;;;34.47;25.35;;;;;;;10.06;81.67;100251.97;5050362;28;20450;-80
2022/04/23 06:37:45;;;;;;;35.72;26.98;;;;;;;10.11;81.20;100255.16;5050601;28;20031;-79
2022/04/23 06:40:14;;;;;;;36.50;25.92;;;;;;;10.17;81.99;100243.91;5063293;28;20041;-79
2022/04/23 06:42:40;;;;;;;40.70;26.65;;;;;;;10.24;81.56;100244.28;5065374;28;20040;-80
2022/04/23 06:45:06;;;;;;;37.53;26.88;;;;;;;10.30;80.69;100246.44;5064202;28;20035;-79
2022/04/23 06:47:32;;;;;;;37.05;26.50;;;;;;;10.36;80.99;100247.81;5049461;28;20173;-79
2022/04/23 06:49:59;;;;;;;39.20;27.85;;;;;;;10.42;80.65;100240.09;5067844;28;20058;-79
2022/04/23 06:52:24;;;;;;;36.88;26.45;;;;;;;10.49;80.21;100248.50;5067405;28;20096;-79
2022/04/23 06:54:54;;;;;;;39.03;26.60;;;;;;;10.57;80.29;100240.69;5066789;28;20581;-80
2022/04/23 06:57:22;;;;;;;36.28;25.70;;;;;;;10.63;79.21;100241.97;5067534;28;20435;-80
2022/04/23 06:59:47;;;;;;;35.03;25.10;;;;;;;10.68;78.90;100234.41;5068591;28;20028;-79
2022/04/23 07:02:13;;;;;;;34.00;24.50;;;;;;;10.73;78.63;100224.13;5051778;28;20085;-80
2022/04/23 07:04:38;;;;;;;33.65;24.60;;;;;;;10.80;78.47;100219.91;5064489;28;20027;-80
2022/04/23 07:07:05;;;;;;;34.25;24.73;;;;;;;10.85;78.02;100230.31;5065303;28;20075;-79
2022/04/23 07:09:31;;;;;;;36.08;25.50;;;;;;;10.92;77.78;100225.25;5069521;28;20051;-79
2022/04/23 07:11:56;;;;;;;37.05;24.58;;;;;;;10.97;77.29;100221.19;5068334;28;20119;-79
2022/04/23 07:14:23;;;;;;;36.78;25.92;;;;;;;11.04;77.01;100221.53;5064391;28;20028;-80
2022/04/23 07:16:48;;;;;;;36.30;25.48;;;;;;;11.12;77.47;100218.16;5062574;28;20024;-80
2022/04/23 07:19:13;;;;;;;37.45;26.10;;;;;;;11.15;76.31;100224.13;5063450;28;20114;-80
2022/04/23 07:21:39;;;;;;;44.38;26.77;;;;;;;11.22;76.50;100220.94;5065710;28;20120;-80
2022/04/23 07:24:05;;;;;;;35.15;24.65;;;;;;;11.27;75.78;100216.00;5066616;28;20024;-79
2022/04/23 07:26:34;;;;;;;36.47;26.23;;;;;;;11.35;77.00;100213.50;5064900;28;20062;-79
2022/04/23 07:28:59;;;;;;;34.95;23.95;;;;;;;11.42;77.15;100220.06;5065925;28;20028;-80
2022/04/23 07:31:25;;;;;;;37.17;26.27;;;;;;;11.48;76.25;100208.75;5065068;28;20035;-79
2022/04/23 07:39:18;;;;;;;33.95;23.50;;;;;;;11.68;75.22;100214.22;5068042;28;20042;-79
2022/04/23 07:41:44;;;;;;;35.75;25.33;;;;;;;11.72;75.19;100210.25;5066496;28;20025;-79
2022/04/23 07:44:09;;;;;;;32.42;24.05;;;;;;;11.76;73.98;100209.00;5066973;28;20135;-79
2022/04/23 07:46:34;;;;;;;33.47;24.55;;;;;;;11.81;73.76;100209.44;5067355;28;20039;-80
2022/04/23 07:48:59;;;;;;;36.55;24.65;;;;;;;11.86;73.01;100201.81;5067895;28;20395;-80
2022/04/23 07:51:27;;;;;;;34.75;24.08;;;;;;;11.92;71.95;100211.19;5068408;28;20040;-80
2022/04/23 07:53:53;;;;;;;33.75;23.83;;;;;;;11.97;72.79;100208.97;5066302;28;21173;-80
2022/04/23 07:56:18;;;;;;;33.45;23.58;;;;;;;12.03;71.75;100202.16;5068226;28;20113;-80
2022/04/23 07:58:43;;;;;;;34.20;23.63;;;;;;;12.09;72.88;100203.47;5066767;28;20073;-80
2022/04/23 08:01:09;;;;;;;32.13;22.92;;;;;;;12.13;70.41;100205.75;5067611;28;20585;-80
2022/04/23 08:03:34;;;;;;;32.97;23.52;;;;;;;12.22;70.03;100201.38;5068478;28;20217;-80
2022/04/23 08:06:00;;;;;;;33.72;23.17;;;;;;;12.29;69.92;100199.81;5068327;28;20020;-79
2022/04/23 08:08:25;;;;;;;32.28;21.20;;;;;;;12.36;69.94;100198.25;5065422;28;20672;-80
2022/04/23 08:10:50;;;;;;;31.65;21.30;;;;;;;12.46;70.47;100183.94;5065274;28;20416;-80
2022/04/23 08:13:17;;;;;;;34.13;22.75;;;;;;;12.56;69.79;100196.44;5065905;28;20028;-79
2022/04/23 08:15:42;;;;;;;33.83;22.70;;;;;;;12.63;68.99;100187.78;5066108;28;20411;-79
2022/04/23 08:18:08;;;;;;;31.38;21.50;;;;;;;12.71;68.73;100182.53;5067989;28;20028;-79
2022/04/23 08:20:34;;;;;;;32.67;21.80;;;;;;;12.79;68.33;100179.97;5069020;28;20073;-80
2022/04/23 08:22:59;;;;;;;32.42;22.48;;;;;;;12.83;67.00;100173.28;5065436;28;20028;-80
2022/04/23 08:25:24;;;;;;;32.58;21.90;;;;;;;12.87;67.74;100177.41;5066822;28;20999;-80
2022/04/23 08:30:34;;;;;;;34.45;21.50;;;;;;;12.90;67.15;100185.22;5069136;28;20537;-80
2022/04/23 08:30:40;;;;;;;36.15;22.40;;;;;;;12.92;66.22;100180.50;5068585;28;20488;-80
2022/04/23 08:33:06;;;;;;;31.17;22.58;;;;;;;12.99;67.01;100180.78;5067836;28;20035;-81
2022/04/23 08:35:33;;;;;;;33.15;22.95;;;;;;;13.08;67.13;100182.63;5051862;28;20040;-80
2022/04/23 08:37:59;;;;;;;31.65;21.65;;;;;;;13.20;66.45;100175.19;5068504;28;20034;-79
2022/04/23 08:40:25;;;;;;;31.65;21.08;;;;;;;13.29;67.08;100168.94;5063089;28;20053;-79
2022/04/23 08:42:51;;;;;;;31.55;21.90;;;;;;;13.37;65.48;100180.88;5068718;28;20055;-80
2022/04/23 08:45:16;;;;;;;33.33;23.20;;;;;;;13.39;65.28;100178.88;5066913;28;20043;-80
2022/04/23 08:47:44;;;;;;;33.55;23.38;;;;;;;13.41;65.02;100193.94;5066960;28;20630;-79
2022/04/23 08:50:10;;;;;;;30.80;21.48;;;;;;;13.52;64.64;100184.78;5063938;28;20016;-79
2022/04/23 08:52:35;;;;;;;33.30;24.33;;;;;;;13.56;63.82;100188.06;5067204;28;20541;-79
2022/04/23 08:55:02;;;;;;;32.72;22.25;;;;;;;13.66;64.52;100171.81;5068920;28;20028;-80
2022/04/23 08:57:28;;;;;;;31.52;21.55;;;;;;;13.72;64.58;100182.88;5068230;28;20029;-80
2022/04/23 08:59:56;;;;;;;33.17;23.02;;;;;;;13.79;64.26;100186.69;5069871;28;20086;-80
2022/04/23 09:02:26;;;;;;;32.55;24.65;;;;;;;13.84;63.21;100194.31;5063508;28;20029;-80
2022/04/23 09:04:52;;;;;;;;;;;;;;;13.88;65.12;100201.13;5054668;28;20028;-79
2022/04/23 09:07:28;;;;;;;37.90;25.33;;;;;;;13.93;62.08;100193.41;5053130;28;19920;-80
2022/04/23 09:09:55;;;;;;;31.65;22.85;;;;;;;13.98;62.96;100185.72;5061491;28;20556;-80
2022/04/23 09:12:24;;;;;;;34.08;25.05;;;;;;;14.07;62.54;100194.78;5068173;28;20360;-80
2022/04/23 09:14:51;;;;;;;37.17;25.52;;;;;;;14.15;60.97;100196.72;5062613;28;20408;-80
2022/04/23 09:25:37;;;;;;;35.25;24.90;;;;;;;14.48;62.02;100197.03;5073185;28;20384;-80
2022/04/23 09:28:20;;;;;;;34.85;25.85;;;;;;;14.52;61.63;100203.84;5073023;28;20447;-80
2022/04/23 09:30:51;;;;;;;36.03;28.48;;;;;;;14.51;61.05;100192.19;5071334;28;20610;-80
2022/04/23 09:33:18;;;;;;;34.15;26.45;;;;;;;14.50;60.61;100198.59;5058841;28;20021;-80
2022/04/23 09:36:01;;;;;;;35.63;26.80;;;;;;;14.51;61.42;100191.34;5054484;28;20032;-80
2022/04/23 09:38:27;;;;;;;36.60;29.17;;;;;;;14.62;62.81;100187.56;5068148;28;20032;-79
2022/04/23 09:40:57;;;;;;;36.22;29.73;;;;;;;14.72;61.88;100193.75;5052574;28;20057;-79
2022/04/23 09:43:28;;;;;;;37.75;28.30;;;;;;;14.80;60.93;100191.13;5064393;28;20029;-80
2022/04/23 09:46:08;;;;;;;38.83;27.70;;;;;;;14.81;59.80;100194.69;5051116;28;20119;-80
2022/04/23 09:48:33;;;;;;;36.83;26.80;;;;;;;14.87;60.15;100191.34;5055853;28;20051;-79
2022/04/23 09:50:59;;;;;;;35.83;28.73;;;;;;;15.01;61.62;100187.22;5073226;28;20028;-79
2022/04/23 09:53:28;;;;;;;36.92;28.67;;;;;;;15.07;59.91;100186.59;5069666;28;20384;-79
2022/04/23 09:56:05;;;;;;;36.45;27.65;;;;;;;15.03;59.47;100186.03;5068930;28;20630;-79
2022/04/23 09:58:31;;;;;;;36.53;27.55;;;;;;;15.05;60.03;100185.03;5068107;28;20027;-79
2022/04/23 10:00:58;;;;;;;34.30;26.75;;;;;;;15.08;60.92;100177.47;5069113;28;20036;-79
2022/04/23 10:03:31;;;;;;;36.85;27.90;;;;;;;15.09;59.81;100176.44;5071111;28;20028;-79
2022/04/23 10:05:57;;;;;;;40.65;30.15;;;;;;;15.18;60.87;100174.66;5064366;28;20029;-79
2022/04/23 10:08:32;;;;;;;37.67;29.17;;;;;;;15.23;60.68;100180.44;5068685;28;20089;-79
2022/04/23 10:11:21;;;;;;;39.25;30.00;;;;;;;15.28;59.30;100175.38;5063937;28;20043;-79
2022/04/23 10:13:52;;;;;;;36.40;28.75;;;;;;;15.30;60.58;100164.41;5068546;28;20124;-79
2022/04/23 10:16:19;;;;;;;35.78;27.15;;;;;;;15.28;58.89;100167.25;5070611;28;20196;-77
2022/04/23 10:18:45;;;;;;;39.17;28.30;;;;;;;15.33;58.88;100164.06;5070258;28;20020;-77
2022/04/23 10:21:18;;;;;;;38.25;26.75;;;;;;;15.38;59.77;100162.59;5072981;28;20561;-77
2022/04/23 10:24:06;;;;;;;37.30;26.63;;;;;;;15.44;58.98;100152.97;5069032;28;20040;-79
2022/04/23 10:26:38;;;;;;;37.03;26.98;;;;;;;15.51;59.47;100155.91;5070044;28;20047;-78
2022/04/23 10:29:23;;;;;;;40.20;27.30;;;;;;;15.52;60.30;100161.16;5063564;28;20028;-77
2022/04/23 10:32:35;;;;;;;37.40;28.75;;;;;;;15.56;59.61;100148.13;5066915;28;20403;-78
2022/04/23 10:35:02;;;;;;;35.55;27.20;;;;;;;15.65;59.91;100162.53;5037022;28;20033;-78
2022/04/23 10:37:28;;;;;;;33.70;26.33;;;;;;;15.66;58.40;100166.97;5035810;28;20140;-76
2022/04/23 10:39:53;;;;;;;37.83;26.55;;;;;;;15.68;57.38;100157.66;5021398;28;20563;-77
2022/04/23 10:42:23;;;;;;;33.90;27.73;;;;;;;15.73;58.06;100166.13;5019472;28;20079;-76
2022/04/23 10:44:50;;;;;;;35.45;26.02;;;;;;;15.77;57.95;100168.53;5035575;28;20302;-77
2022/04/23 10:47:33;;;;;;;36.00;26.88;;;;;;;15.78;57.43;100157.53;5031785;28;20037;-77
2022/04/23 10:50:22;;;;;;;36.88;27.45;;;;;;;15.86;58.15;100154.88;5036549;28;20084;-78
2022/04/23 10:52:55;;;;;;;34.80;27.10;;;;;;;15.92;57.55;100161.50;5033456;28;20442;-77
2022/04/23 10:55:22;;;;;;;39.03;28.52;;;;;;;15.96;57.37;100154.75;5030161;28;20033;-77
2022/04/23 10:57:50;;;;;;;36.17;27.45;;;;;;;16.00;55.96;100155.25;5007571;28;20047;-76
2022/04/23 11:00:23;;;;;;;35.20;25.92;;;;;;;16.07;58.20;100151.72;5015846;28;20060;-77
2022/04/23 11:02:55;;;;;;;37.15;28.48;;;;;;;16.10;57.01;100149.69;5035525;28;20033;-77
2022/04/23 11:13:50;;;;;;;33.60;26.52;;;;;;;16.12;56.01;100144.94;5065847;28;20127;-77
2022/04/23 11:16:17;;;;;;;36.60;27.02;;;;;;;16.11;55.58;100146.81;5064240;28;20115;-76
2022/04/23 11:18:44;;;;;;;36.13;27.40;;;;;;;16.18;57.24;100141.56;5066881;28;20028;-76
2022/04/23 11:21:14;;;;;;;34.50;25.58;;;;;;;16.23;54.95;100142.78;5069826;28;20089;-76
2022/04/23 11:23:42;;;;;;;37.22;26.48;;;;;;;16.31;55.98;100141.09;5059631;28;20117;-76
2022/04/23 11:26:11;;;;;;;35.60;24.30;;;;;;;16.48;56.91;100133.84;5069656;28;20021;-76
2022/04/23 11:28:37;;;;;;;33.60;23.80;;;;;;;16.59;54.31;100141.66;5067477;28;20054;-76
2022/04/23 11:31:10;;;;;;;34.58;24.25;;;;;;;16.67;54.43;100140.78;5064526;28;20056;-76
2022/04/23 11:33:36;;;;;;;33.55;25.88;;;;;;;16.75;54.32;100144.34;5066601;28;20056;-76
2022/04/23 11:36:02;;;;;;;36.88;25.77;;;;;;;16.78;53.21;100144.00;5062337;28;20503;-77
2022/04/23 11:38:28;;;;;;;33.88;24.70;;;;;;;16.83;53.57;100148.06;5067077;28;20048;-77